sensor_id;sensor_type;location;lat;lon;timestamp;pressure;altitude;pressure_sealevel;temperature;humidity
43480;BME280;29067;35.492;-97.520;2024-02-14T00:01:29;97360.60;;;10.74;29.28
43480;BME280;29067;35.492;-97.520;2024-02-14T00:03:58;97359.57;;;10.91;29.27
43480;BME280;29067;35.492;-97.520;2024-02-14T00:06:26;97358.05;;;10.93;28.86
43480;BME280;29067;35.492;-97.520;2024-02-14T00:08:55;97355.51;;;11.15;28.79
43480;BME280;29067;35.492;-97.520;2024-02-14T00:11:24;97356.36;;;11.18;28.81
43480;BME280;29067;35.492;-97.520;2024-02-14T00:13:52;97355.69;;;12.00;28.46
43480;BME280;29067;35.492;-97.520;2024-02-14T00:16:21;97353.17;;;12.95;27.47
43480;BME280;29067;35.492;-97.520;2024-02-14T00:18:49;97357.61;;;11.02;29.14
43480;BME280;29067;35.492;-97.520;2024-02-14T00:21:18;97354.39;;;12.16;28.05
43480;BME280;29067;35.492;-97.520;2024-02-14T00:23:47;97359.14;;;12.38;27.86
43480;BME280;29067;35.492;-97.520;2024-02-14T00:26:15;97360.14;;;12.90;27.64
43480;BME280;29067;35.492;-97.520;2024-02-14T00:28:44;97362.48;;;12.82;27.69
43480;BME280;29067;35.492;-97.520;2024-02-14T00:31:12;97359.59;;;11.28;28.48
43480;BME280;29067;35.492;-97.520;2024-02-14T00:33:41;97364.42;;;11.73;28.50
43480;BME280;29067;35.492;-97.520;2024-02-14T00:36:10;97368.03;;;11.75;28.59
43480;BME280;29067;35.492;-97.520;2024-02-14T00:38:38;97374.88;;;12.28;28.55
43480;BME280;29067;35.492;-97.520;2024-02-14T00:41:07;97382.16;;;10.19;29.50
43480;BME280;29067;35.492;-97.520;2024-02-14T00:43:36;97385.19;;;10.96;29.47
43480;BME280;29067;35.492;-97.520;2024-02-14T00:46:05;97385.69;;;10.15;30.32
43480;BME280;29067;35.492;-97.520;2024-02-14T00:48:36;97383.08;;;12.33;29.09
43480;BME280;29067;35.492;-97.520;2024-02-14T00:51:04;97383.78;;;11.61;29.74
43480;BME280;29067;35.492;-97.520;2024-02-14T00:53:33;97389.38;;;9.90;30.96
43480;BME280;29067;35.492;-97.520;2024-02-14T00:56:04;97383.42;;;10.26;30.91
43480;BME280;29067;35.492;-97.520;2024-02-14T00:58:33;97391.02;;;9.35;31.65
43480;BME280;29067;35.492;-97.520;2024-02-14T01:01:04;97385.53;;;10.13;31.60
43480;BME280;29067;35.492;-97.520;2024-02-14T01:03:33;97382.00;;;10.24;31.17
43480;BME280;29067;35.492;-97.520;2024-02-14T01:06:02;97383.37;;;10.92;31.21
43480;BME280;29067;35.492;-97.520;2024-02-14T01:08:32;97379.43;;;10.50;31.66
43480;BME280;29067;35.492;-97.520;2024-02-14T01:11:03;97382.69;;;10.73;31.26
43480;BME280;29067;35.492;-97.520;2024-02-14T01:13:34;97384.50;;;10.85;31.23
43480;BME280;29067;35.492;-97.520;2024-02-14T01:16:05;97384.37;;;10.37;31.77
43480;BME280;29067;35.492;-97.520;2024-02-14T01:18:40;97382.55;;;10.72;31.41
43480;BME280;29067;35.492;-97.520;2024-02-14T01:21:12;97384.70;;;10.01;32.27
43480;BME280;29067;35.492;-97.520;2024-02-14T01:23:43;97381.78;;;11.14;31.40
43480;BME280;29067;35.492;-97.520;2024-02-14T01:26:13;97385.82;;;10.24;31.17
43480;BME280;29067;35.492;-97.520;2024-02-14T01:28:43;97397.49;;;8.79;33.09
43480;BME280;29067;35.492;-97.520;2024-02-14T01:31:11;97398.45;;;9.47;32.56
43480;BME280;29067;35.492;-97.520;2024-02-14T01:33:44;97398.46;;;9.27;32.80
43480;BME280;29067;35.492;-97.520;2024-02-14T01:36:13;97395.21;;;8.96;32.49
43480;BME280;29067;35.492;-97.520;2024-02-14T01:38:45;97392.43;;;10.10;32.22
43480;BME280;29067;35.492;-97.520;2024-02-14T01:41:15;97391.30;;;10.71;31.78
43480;BME280;29067;35.492;-97.520;2024-02-14T01:43:49;97395.72;;;10.10;31.82
43480;BME280;29067;35.492;-97.520;2024-02-14T01:46:22;97402.69;;;8.94;32.78
43480;BME280;29067;35.492;-97.520;2024-02-14T01:48:55;97408.23;;;8.64;33.08
43480;BME280;29067;35.492;-97.520;2024-02-14T01:51:28;97402.80;;;9.37;32.97
43480;BME280;29067;35.492;-97.520;2024-02-14T01:53:59;97403.82;;;9.33;32.73
43480;BME280;29067;35.492;-97.520;2024-02-14T01:56:30;97405.45;;;8.45;33.73
43480;BME280;29067;35.492;-97.520;2024-02-14T01:59:05;97401.20;;;9.27;33.33
43480;BME280;29067;35.492;-97.520;2024-02-14T02:01:36;97407.15;;;9.12;33.54
43480;BME280;29067;35.492;-97.520;2024-02-14T02:04:14;97399.84;;;9.30;33.49
43480;BME280;29067;35.492;-97.520;2024-02-14T02:06:44;97404.54;;;8.68;33.82
43480;BME280;29067;35.492;-97.520;2024-02-14T02:09:14;97407.28;;;8.03;34.82
43480;BME280;29067;35.492;-97.520;2024-02-14T02:11:46;97413.74;;;8.37;34.39
43480;BME280;29067;35.492;-97.520;2024-02-14T02:14:17;97412.62;;;8.17;34.96
43480;BME280;29067;35.492;-97.520;2024-02-14T02:16:47;97410.51;;;10.43;32.99
43480;BME280;29067;35.492;-97.520;2024-02-14T02:19:17;97409.93;;;10.23;32.73
43480;BME280;29067;35.492;-97.520;2024-02-14T02:21:47;97412.36;;;9.26;33.26
43480;BME280;29067;35.492;-97.520;2024-02-14T02:24:16;97411.56;;;9.07;33.68
43480;BME280;29067;35.492;-97.520;2024-02-14T02:26:52;97413.69;;;8.84;34.19
43480;BME280;29067;35.492;-97.520;2024-02-14T02:29:21;97414.26;;;9.40;33.49
43480;BME280;29067;35.492;-97.520;2024-02-14T02:31:54;97414.61;;;10.06;33.66
43480;BME280;29067;35.492;-97.520;2024-02-14T02:34:23;97415.30;;;8.84;34.21
43480;BME280;29067;35.492;-97.520;2024-02-14T02:36:53;97419.15;;;8.77;34.30
43480;BME280;29067;35.492;-97.520;2024-02-14T02:39:22;97415.01;;;8.49;34.75
43480;BME280;29067;35.492;-97.520;2024-02-14T02:41:53;97413.74;;;8.53;34.15
43480;BME280;29067;35.492;-97.520;2024-02-14T02:44:22;97418.05;;;8.65;34.06
43480;BME280;29067;35.492;-97.520;2024-02-14T02:46:51;97416.30;;;7.69;35.25
43480;BME280;29067;35.492;-97.520;2024-02-14T02:49:21;97415.74;;;8.24;35.07
43480;BME280;29067;35.492;-97.520;2024-02-14T02:51:50;97411.33;;;7.78;35.68
43480;BME280;29067;35.492;-97.520;2024-02-14T02:54:22;97415.29;;;8.54;35.85
43480;BME280;29067;35.492;-97.520;2024-02-14T02:56:52;97416.39;;;8.70;35.10
43480;BME280;29067;35.492;-97.520;2024-02-14T02:59:26;97417.64;;;7.66;35.54
43480;BME280;29067;35.492;-97.520;2024-02-14T03:01:57;97416.94;;;7.45;36.36
43480;BME280;29067;35.492;-97.520;2024-02-14T03:04:27;97417.79;;;8.53;35.84
43480;BME280;29067;35.492;-97.520;2024-02-14T03:06:57;97421.73;;;7.38;36.77
43480;BME280;29067;35.492;-97.520;2024-02-14T03:09:27;97424.86;;;6.65;37.52
43480;BME280;29067;35.492;-97.520;2024-02-14T03:11:57;97425.81;;;6.63;37.41
43480;BME280;29067;35.492;-97.520;2024-02-14T03:14:30;97420.57;;;7.42;36.61
43480;BME280;29067;35.492;-97.520;2024-02-14T03:17:02;97426.75;;;6.98;37.55
43480;BME280;29067;35.492;-97.520;2024-02-14T03:19:31;97420.51;;;8.59;35.69
43480;BME280;29067;35.492;-97.520;2024-02-14T03:22:00;97423.88;;;7.69;36.23
43480;BME280;29067;35.492;-97.520;2024-02-14T03:24:32;97428.75;;;7.77;35.78
43480;BME280;29067;35.492;-97.520;2024-02-14T03:27:01;97434.08;;;7.14;36.98
43480;BME280;29067;35.492;-97.520;2024-02-14T03:29:29;97438.63;;;7.20;37.48
43480;BME280;29067;35.492;-97.520;2024-02-14T03:31:59;97433.73;;;8.44;35.87
43480;BME280;29067;35.492;-97.520;2024-02-14T03:34:33;97436.73;;;6.80;37.38
43480;BME280;29067;35.492;-97.520;2024-02-14T03:37:01;97432.92;;;7.94;36.49
43480;BME280;29067;35.492;-97.520;2024-02-14T03:39:30;97433.97;;;6.85;37.52
43480;BME280;29067;35.492;-97.520;2024-02-14T03:41:59;97438.00;;;7.14;37.75
43480;BME280;29067;35.492;-97.520;2024-02-14T03:44:29;97438.09;;;6.13;39.73
43480;BME280;29067;35.492;-97.520;2024-02-14T03:46:57;97438.25;;;7.08;38.95
43480;BME280;29067;35.492;-97.520;2024-02-14T03:49:26;97441.38;;;7.07;39.22
43480;BME280;29067;35.492;-97.520;2024-02-14T03:51:55;97445.66;;;5.91;40.88
43480;BME280;29067;35.492;-97.520;2024-02-14T03:54:24;97443.59;;;6.66;40.07
43480;BME280;29067;35.492;-97.520;2024-02-14T03:56:52;97449.36;;;6.58;40.34
43480;BME280;29067;35.492;-97.520;2024-02-14T03:59:21;97449.10;;;6.06;41.17
43480;BME280;29067;35.492;-97.520;2024-02-14T04:01:51;97452.05;;;6.60;40.97
43480;BME280;29067;35.492;-97.520;2024-02-14T04:04:20;97451.05;;;6.45;40.81
43480;BME280;29067;35.492;-97.520;2024-02-14T04:06:48;97453.50;;;6.48;40.86
43480;BME280;29067;35.492;-97.520;2024-02-14T04:09:17;97449.01;;;6.61;41.07
43480;BME280;29067;35.492;-97.520;2024-02-14T04:11:46;97450.74;;;5.90;41.34
43480;BME280;29067;35.492;-97.520;2024-02-14T04:14:14;97456.27;;;6.46;41.25
43480;BME280;29067;35.492;-97.520;2024-02-14T04:16:43;97451.11;;;6.82;40.53
43480;BME280;29067;35.492;-97.520;2024-02-14T04:19:12;97452.95;;;6.19;40.83
43480;BME280;29067;35.492;-97.520;2024-02-14T04:21:40;97451.34;;;7.06;40.62
43480;BME280;29067;35.492;-97.520;2024-02-14T04:24:09;97451.25;;;6.53;40.65
43480;BME280;29067;35.492;-97.520;2024-02-14T04:26:36;97445.54;;;7.80;40.29
43480;BME280;29067;35.492;-97.520;2024-02-14T04:29:04;97442.79;;;7.85;39.32
43480;BME280;29067;35.492;-97.520;2024-02-14T04:31:32;97446.65;;;6.85;40.18
43480;BME280;29067;35.492;-97.520;2024-02-14T04:34:00;97452.67;;;6.79;40.44
43480;BME280;29067;35.492;-97.520;2024-02-14T04:36:28;97446.92;;;6.43;40.99
43480;BME280;29067;35.492;-97.520;2024-02-14T04:38:57;97450.28;;;5.01;43.17
43480;BME280;29067;35.492;-97.520;2024-02-14T04:41:25;97450.74;;;4.81;43.72
43480;BME280;29067;35.492;-97.520;2024-02-14T04:43:53;97454.21;;;4.54;44.30
43480;BME280;29067;35.492;-97.520;2024-02-14T04:46:21;97454.10;;;5.40;43.23
43480;BME280;29067;35.492;-97.520;2024-02-14T04:48:49;97453.43;;;6.42;42.09
43480;BME280;29067;35.492;-97.520;2024-02-14T04:51:17;97446.35;;;7.11;42.20
43480;BME280;29067;35.492;-97.520;2024-02-14T04:53:45;97451.03;;;6.29;42.72
43480;BME280;29067;35.492;-97.520;2024-02-14T04:56:13;97451.43;;;6.10;42.88
43480;BME280;29067;35.492;-97.520;2024-02-14T04:58:40;97458.65;;;5.90;43.08
43480;BME280;29067;35.492;-97.520;2024-02-14T05:01:08;97458.19;;;6.13;42.90
43480;BME280;29067;35.492;-97.520;2024-02-14T05:03:36;97456.19;;;5.13;44.07
43480;BME280;29067;35.492;-97.520;2024-02-14T05:06:04;97452.04;;;6.03;43.14
43480;BME280;29067;35.492;-97.520;2024-02-14T05:08:33;97460.63;;;5.77;44.22
43480;BME280;29067;35.492;-97.520;2024-02-14T05:11:01;97452.84;;;6.44;42.94
43480;BME280;29067;35.492;-97.520;2024-02-14T05:13:28;97452.12;;;5.80;43.31
43480;BME280;29067;35.492;-97.520;2024-02-14T05:15:56;97457.60;;;5.94;43.58
43480;BME280;29067;35.492;-97.520;2024-02-14T05:18:24;97456.50;;;6.88;42.92
43480;BME280;29067;35.492;-97.520;2024-02-14T05:20:52;97454.16;;;6.11;42.67
43480;BME280;29067;35.492;-97.520;2024-02-14T05:23:20;97463.15;;;4.42;45.22
43480;BME280;29067;35.492;-97.520;2024-02-14T05:25:48;97462.99;;;4.68;44.93
43480;BME280;29067;35.492;-97.520;2024-02-14T05:28:16;97465.21;;;4.86;44.54
43480;BME280;29067;35.492;-97.520;2024-02-14T05:30:44;97459.72;;;4.97;44.60
43480;BME280;29067;35.492;-97.520;2024-02-14T05:33:12;97461.40;;;4.84;44.95
43480;BME280;29067;35.492;-97.520;2024-02-14T05:35:39;97462.34;;;4.75;45.49
43480;BME280;29067;35.492;-97.520;2024-02-14T05:38:07;97463.98;;;5.11;45.38
43480;BME280;29067;35.492;-97.520;2024-02-14T05:40:35;97466.80;;;4.03;46.97
43480;BME280;29067;35.492;-97.520;2024-02-14T05:43:03;97471.17;;;4.07;46.69
43480;BME280;29067;35.492;-97.520;2024-02-14T05:45:31;97464.29;;;4.45;46.60
43480;BME280;29067;35.492;-97.520;2024-02-14T05:47:59;97468.33;;;5.83;46.11
43480;BME280;29067;35.492;-97.520;2024-02-14T05:50:27;97465.64;;;4.73;47.39
43480;BME280;29067;35.492;-97.520;2024-02-14T05:52:56;97467.62;;;5.28;47.07
43480;BME280;29067;35.492;-97.520;2024-02-14T05:55:24;97469.91;;;4.67;46.91
43480;BME280;29067;35.492;-97.520;2024-02-14T05:57:52;97464.76;;;3.94;47.81
43480;BME280;29067;35.492;-97.520;2024-02-14T06:00:20;97465.33;;;3.18;49.12
43480;BME280;29067;35.492;-97.520;2024-02-14T06:02:48;97473.43;;;4.02;48.11
43480;BME280;29067;35.492;-97.520;2024-02-14T06:05:17;97477.47;;;4.80;48.04
43480;BME280;29067;35.492;-97.520;2024-02-14T06:07:44;97482.16;;;4.01;48.46
43480;BME280;29067;35.492;-97.520;2024-02-14T06:10:12;97479.06;;;4.72;46.37
43480;BME280;29067;35.492;-97.520;2024-02-14T06:12:40;97480.45;;;4.43;47.58
43480;BME280;29067;35.492;-97.520;2024-02-14T06:15:08;97487.18;;;4.53;47.41
43480;BME280;29067;35.492;-97.520;2024-02-14T06:17:36;97487.66;;;4.33;47.84
43480;BME280;29067;35.492;-97.520;2024-02-14T06:20:05;97482.45;;;4.53;48.14
43480;BME280;29067;35.492;-97.520;2024-02-14T06:22:33;97490.83;;;4.83;47.92
43480;BME280;29067;35.492;-97.520;2024-02-14T06:25:01;97481.84;;;4.56;48.77
43480;BME280;29067;35.492;-97.520;2024-02-14T06:27:29;97486.98;;;4.88;48.08
43480;BME280;29067;35.492;-97.520;2024-02-14T06:29:57;97482.00;;;5.14;47.16
43480;BME280;29067;35.492;-97.520;2024-02-14T06:32:25;97486.93;;;4.40;48.30
43480;BME280;29067;35.492;-97.520;2024-02-14T06:34:53;97491.35;;;5.19;48.36
43480;BME280;29067;35.492;-97.520;2024-02-14T06:37:22;97494.71;;;5.24;48.58
43480;BME280;29067;35.492;-97.520;2024-02-14T06:39:50;97494.98;;;4.32;48.39
43480;BME280;29067;35.492;-97.520;2024-02-14T06:42:19;97494.29;;;5.46;48.03
43480;BME280;29067;35.492;-97.520;2024-02-14T06:44:46;97495.88;;;5.19;48.37
43480;BME280;29067;35.492;-97.520;2024-02-14T06:47:14;97496.81;;;5.40;47.28
43480;BME280;29067;35.492;-97.520;2024-02-14T06:49:42;97499.65;;;4.30;49.85
43480;BME280;29067;35.492;-97.520;2024-02-14T06:52:09;97497.86;;;3.88;51.01
43480;BME280;29067;35.492;-97.520;2024-02-14T06:54:37;97502.31;;;3.19;52.53
43480;BME280;29067;35.492;-97.520;2024-02-14T06:57:06;97502.19;;;5.19;49.59
43480;BME280;29067;35.492;-97.520;2024-02-14T06:59:34;97502.84;;;4.04;50.47
43480;BME280;29067;35.492;-97.520;2024-02-14T07:02:02;97504.27;;;4.61;49.93
43480;BME280;29067;35.492;-97.520;2024-02-14T07:04:30;97499.23;;;4.62;49.88
43480;BME280;29067;35.492;-97.520;2024-02-14T07:06:58;97504.87;;;4.10;50.15
43480;BME280;29067;35.492;-97.520;2024-02-14T07:09:26;97502.72;;;4.83;49.28
43480;BME280;29067;35.492;-97.520;2024-02-14T07:11:54;97503.23;;;4.24;50.77
43480;BME280;29067;35.492;-97.520;2024-02-14T07:14:22;97503.43;;;4.21;50.94
43480;BME280;29067;35.492;-97.520;2024-02-14T07:16:50;97501.13;;;4.36;49.92
43480;BME280;29067;35.492;-97.520;2024-02-14T07:19:18;97498.69;;;3.93;51.29
43480;BME280;29067;35.492;-97.520;2024-02-14T07:21:46;97506.01;;;4.22;50.84
43480;BME280;29067;35.492;-97.520;2024-02-14T07:24:14;97501.83;;;4.15;51.08
43480;BME280;29067;35.492;-97.520;2024-02-14T07:26:42;97507.59;;;4.76;49.31
43480;BME280;29067;35.492;-97.520;2024-02-14T07:29:10;97505.56;;;5.22;49.77
43480;BME280;29067;35.492;-97.520;2024-02-14T07:31:38;97510.80;;;2.80;53.18
43480;BME280;29067;35.492;-97.520;2024-02-14T07:34:06;97510.72;;;4.26;51.44
43480;BME280;29067;35.492;-97.520;2024-02-14T07:36:34;97507.35;;;3.93;52.04
43480;BME280;29067;35.492;-97.520;2024-02-14T07:39:02;97506.94;;;4.94;50.70
43480;BME280;29067;35.492;-97.520;2024-02-14T07:41:30;97504.84;;;5.23;50.30
43480;BME280;29067;35.492;-97.520;2024-02-14T07:43:58;97506.67;;;3.67;52.60
43480;BME280;29067;35.492;-97.520;2024-02-14T07:46:26;97508.50;;;4.00;52.14
43480;BME280;29067;35.492;-97.520;2024-02-14T07:48:54;97513.68;;;3.49;52.66
43480;BME280;29067;35.492;-97.520;2024-02-14T07:51:22;97510.45;;;4.89;51.33
43480;BME280;29067;35.492;-97.520;2024-02-14T07:53:50;97516.00;;;4.09;52.28
43480;BME280;29067;35.492;-97.520;2024-02-14T07:56:23;97516.41;;;3.86;52.33
43480;BME280;29067;35.492;-97.520;2024-02-14T07:58:52;97515.28;;;4.36;51.20
43480;BME280;29067;35.492;-97.520;2024-02-14T08:01:20;97508.57;;;4.86;51.12
43480;BME280;29067;35.492;-97.520;2024-02-14T08:03:47;97508.80;;;2.93;54.25
43480;BME280;29067;35.492;-97.520;2024-02-14T08:06:15;97506.06;;;3.94;53.19
43480;BME280;29067;35.492;-97.520;2024-02-14T08:08:44;97501.74;;;4.40;51.59
43480;BME280;29067;35.492;-97.520;2024-02-14T08:11:11;97505.03;;;4.54;51.71
43480;BME280;29067;35.492;-97.520;2024-02-14T08:13:39;97505.83;;;3.68;53.25
43480;BME280;29067;35.492;-97.520;2024-02-14T08:16:07;97506.83;;;3.63;53.58
43480;BME280;29067;35.492;-97.520;2024-02-14T08:18:35;97507.56;;;4.69;53.53
43480;BME280;29067;35.492;-97.520;2024-02-14T08:21:04;97508.18;;;4.26;53.06
43480;BME280;29067;35.492;-97.520;2024-02-14T08:23:33;97503.08;;;3.54;53.73
43480;BME280;29067;35.492;-97.520;2024-02-14T08:26:01;97506.11;;;3.48;55.00
43480;BME280;29067;35.492;-97.520;2024-02-14T08:28:29;97497.97;;;3.95;54.42
43480;BME280;29067;35.492;-97.520;2024-02-14T08:30:57;97500.28;;;3.48;55.53
43480;BME280;29067;35.492;-97.520;2024-02-14T08:33:25;97498.35;;;3.68;54.91
43480;BME280;29067;35.492;-97.520;2024-02-14T08:35:53;97495.07;;;4.16;53.91
43480;BME280;29067;35.492;-97.520;2024-02-14T08:38:21;97495.54;;;4.06;53.51
43480;BME280;29067;35.492;-97.520;2024-02-14T08:40:49;97498.08;;;4.10;54.01
43480;BME280;29067;35.492;-97.520;2024-02-14T08:43:18;97490.88;;;3.49;54.47
43480;BME280;29067;35.492;-97.520;2024-02-14T08:45:46;97487.86;;;3.58;54.80
43480;BME280;29067;35.492;-97.520;2024-02-14T08:48:14;97485.12;;;4.24;54.01
43480;BME280;29067;35.492;-97.520;2024-02-14T08:50:42;97484.96;;;4.01;54.03
43480;BME280;29067;35.492;-97.520;2024-02-14T08:53:10;97483.04;;;3.52;54.64
43480;BME280;29067;35.492;-97.520;2024-02-14T08:55:38;97494.57;;;2.24;57.66
43480;BME280;29067;35.492;-97.520;2024-02-14T08:58:06;97489.24;;;2.88;57.08
43480;BME280;29067;35.492;-97.520;2024-02-14T09:00:34;97498.57;;;3.36;56.99
43480;BME280;29067;35.492;-97.520;2024-02-14T09:03:04;97496.78;;;2.46;57.87
43480;BME280;29067;35.492;-97.520;2024-02-14T09:05:32;97488.85;;;3.53;56.10
43480;BME280;29067;35.492;-97.520;2024-02-14T09:08:00;97491.64;;;3.07;57.45
43480;BME280;29067;35.492;-97.520;2024-02-14T09:10:28;97487.53;;;2.93;57.24
43480;BME280;29067;35.492;-97.520;2024-02-14T09:12:56;97489.63;;;3.35;56.98
43480;BME280;29067;35.492;-97.520;2024-02-14T09:15:24;97490.70;;;2.62;58.26
43480;BME280;29067;35.492;-97.520;2024-02-14T09:17:52;97483.02;;;4.17;55.86
43480;BME280;29067;35.492;-97.520;2024-02-14T09:20:20;97486.76;;;3.66;56.00
43480;BME280;29067;35.492;-97.520;2024-02-14T09:22:47;97496.39;;;2.59;58.57
43480;BME280;29067;35.492;-97.520;2024-02-14T09:25:15;97486.84;;;2.40;59.01
43480;BME280;29067;35.492;-97.520;2024-02-14T09:27:44;97485.19;;;2.74;57.96
43480;BME280;29067;35.492;-97.520;2024-02-14T09:30:12;97482.49;;;3.24;57.86
43480;BME280;29067;35.492;-97.520;2024-02-14T09:32:40;97477.29;;;3.66;56.57
43480;BME280;29067;35.492;-97.520;2024-02-14T09:35:08;97473.12;;;3.20;57.65
43480;BME280;29067;35.492;-97.520;2024-02-14T09:37:35;97474.57;;;3.44;56.75
43480;BME280;29067;35.492;-97.520;2024-02-14T09:40:04;97471.61;;;4.10;55.05
43480;BME280;29067;35.492;-97.520;2024-02-14T09:42:38;97472.95;;;3.00;57.50
43480;BME280;29067;35.492;-97.520;2024-02-14T09:45:07;97466.30;;;3.26;56.37
43480;BME280;29067;35.492;-97.520;2024-02-14T09:47:36;97468.36;;;3.10;56.37
43480;BME280;29067;35.492;-97.520;2024-02-14T09:50:07;97468.49;;;2.86;57.84
43480;BME280;29067;35.492;-97.520;2024-02-14T09:52:35;97471.23;;;1.89;58.65
43480;BME280;29067;35.492;-97.520;2024-02-14T09:55:06;97479.38;;;2.58;59.11
43480;BME280;29067;35.492;-97.520;2024-02-14T09:57:34;97474.76;;;2.59;58.60
43480;BME280;29067;35.492;-97.520;2024-02-14T10:00:04;97474.81;;;2.67;59.18
43480;BME280;29067;35.492;-97.520;2024-02-14T10:02:33;97474.30;;;3.03;58.95
43480;BME280;29067;35.492;-97.520;2024-02-14T10:05:01;97481.10;;;1.88;61.09
43480;BME280;29067;35.492;-97.520;2024-02-14T10:07:29;97472.84;;;2.52;60.32
43480;BME280;29067;35.492;-97.520;2024-02-14T10:10:06;97476.62;;;2.37;62.01
43480;BME280;29067;35.492;-97.520;2024-02-14T10:12:34;97474.24;;;2.54;61.75
43480;BME280;29067;35.492;-97.520;2024-02-14T10:15:02;97476.21;;;3.08;59.34
43480;BME280;29067;35.492;-97.520;2024-02-14T10:17:32;97471.06;;;2.56;60.26
43480;BME280;29067;35.492;-97.520;2024-02-14T10:20:01;97470.81;;;3.10;59.23
43480;BME280;29067;35.492;-97.520;2024-02-14T10:22:34;97471.66;;;2.49;60.49
43480;BME280;29067;35.492;-97.520;2024-02-14T10:25:02;97470.00;;;2.75;60.04
43480;BME280;29067;35.492;-97.520;2024-02-14T10:27:30;97467.35;;;3.14;59.23
43480;BME280;29067;35.492;-97.520;2024-02-14T10:29:59;97466.38;;;1.71;61.45
43480;BME280;29067;35.492;-97.520;2024-02-14T10:32:27;97466.30;;;2.51;60.17
43480;BME280;29067;35.492;-97.520;2024-02-14T10:34:55;97460.26;;;3.66;58.68
43480;BME280;29067;35.492;-97.520;2024-02-14T10:37:24;97462.50;;;2.47;60.37
43480;BME280;29067;35.492;-97.520;2024-02-14T10:39:52;97455.92;;;3.71;59.31
43480;BME280;29067;35.492;-97.520;2024-02-14T10:42:21;97457.38;;;2.62;60.17
43480;BME280;29067;35.492;-97.520;2024-02-14T10:44:49;97469.44;;;2.41;61.16
43480;BME280;29067;35.492;-97.520;2024-02-14T10:47:20;97469.63;;;2.81;60.97
43480;BME280;29067;35.492;-97.520;2024-02-14T10:49:49;97456.48;;;2.70;61.72
43480;BME280;29067;35.492;-97.520;2024-02-14T10:52:18;97462.17;;;2.40;62.01
43480;BME280;29067;35.492;-97.520;2024-02-14T10:54:52;97463.19;;;2.77;61.07
43480;BME280;29067;35.492;-97.520;2024-02-14T10:57:24;97469.87;;;2.24;62.48
43480;BME280;29067;35.492;-97.520;2024-02-14T10:59:54;97464.56;;;3.02;60.06
43480;BME280;29067;35.492;-97.520;2024-02-14T11:02:23;97467.97;;;2.75;60.97
43480;BME280;29067;35.492;-97.520;2024-02-14T11:04:52;97475.48;;;2.29;62.34
43480;BME280;29067;35.492;-97.520;2024-02-14T11:07:21;97472.33;;;1.68;63.09
43480;BME280;29067;35.492;-97.520;2024-02-14T11:10:00;97469.93;;;2.16;63.47
43480;BME280;29067;35.492;-97.520;2024-02-14T11:12:33;97470.97;;;2.37;61.66
43480;BME280;29067;35.492;-97.520;2024-02-14T11:15:01;97477.66;;;1.69;62.92
43480;BME280;29067;35.492;-97.520;2024-02-14T11:17:29;97467.87;;;2.89;60.89
43480;BME280;29067;35.492;-97.520;2024-02-14T11:19:57;97473.33;;;1.81;62.58
43480;BME280;29067;35.492;-97.520;2024-02-14T11:22:25;97465.58;;;2.89;62.69
43480;BME280;29067;35.492;-97.520;2024-02-14T11:24:53;97467.33;;;2.09;62.43
43480;BME280;29067;35.492;-97.520;2024-02-14T11:27:23;97467.66;;;2.11;63.54
43480;BME280;29067;35.492;-97.520;2024-02-14T11:29:54;97464.97;;;2.51;63.93
43480;BME280;29067;35.492;-97.520;2024-02-14T11:32:23;97455.86;;;2.35;62.73
43480;BME280;29067;35.492;-97.520;2024-02-14T11:34:54;97454.56;;;2.67;61.62
43480;BME280;29067;35.492;-97.520;2024-02-14T11:37:28;97457.18;;;1.93;62.73
43480;BME280;29067;35.492;-97.520;2024-02-14T11:39:56;97461.73;;;2.26;62.80
43480;BME280;29067;35.492;-97.520;2024-02-14T11:42:24;97457.43;;;1.66;63.58
43480;BME280;29067;35.492;-97.520;2024-02-14T11:44:52;97461.58;;;1.95;63.96
43480;BME280;29067;35.492;-97.520;2024-02-14T11:47:21;97452.92;;;1.74;64.27
43480;BME280;29067;35.492;-97.520;2024-02-14T11:49:49;97452.50;;;2.07;62.87
43480;BME280;29067;35.492;-97.520;2024-02-14T11:52:17;97455.24;;;2.60;61.25
43480;BME280;29067;35.492;-97.520;2024-02-14T11:54:47;97461.47;;;1.84;63.30
43480;BME280;29067;35.492;-97.520;2024-02-14T11:57:17;97458.28;;;1.79;62.98
43480;BME280;29067;35.492;-97.520;2024-02-14T11:59:45;97459.39;;;2.18;64.08
43480;BME280;29067;35.492;-97.520;2024-02-14T12:03:02;97458.84;;;2.11;64.86
43480;BME280;29067;35.492;-97.520;2024-02-14T12:05:29;97457.95;;;2.39;63.58
43480;BME280;29067;35.492;-97.520;2024-02-14T12:07:57;97459.09;;;1.70;64.50
43480;BME280;29067;35.492;-97.520;2024-02-14T12:10:26;97450.81;;;2.13;64.02
43480;BME280;29067;35.492;-97.520;2024-02-14T12:12:54;97455.07;;;1.84;64.26
43480;BME280;29067;35.492;-97.520;2024-02-14T12:15:22;97456.94;;;2.12;64.45
43480;BME280;29067;35.492;-97.520;2024-02-14T12:17:50;97451.55;;;2.77;63.47
43480;BME280;29067;35.492;-97.520;2024-02-14T12:20:22;97452.74;;;2.17;64.64
43480;BME280;29067;35.492;-97.520;2024-02-14T12:22:51;97450.41;;;3.08;61.48
43480;BME280;29067;35.492;-97.520;2024-02-14T12:25:18;97454.76;;;3.14;62.01
43480;BME280;29067;35.492;-97.520;2024-02-14T12:27:51;97459.47;;;2.15;62.37
43480;BME280;29067;35.492;-97.520;2024-02-14T12:30:19;97454.82;;;1.96;63.79
43480;BME280;29067;35.492;-97.520;2024-02-14T12:32:58;97462.53;;;1.60;65.35
43480;BME280;29067;35.492;-97.520;2024-02-14T12:35:26;97464.48;;;2.87;61.84
43480;BME280;29067;35.492;-97.520;2024-02-14T12:37:54;97467.69;;;1.81;63.50
43480;BME280;29067;35.492;-97.520;2024-02-14T12:40:24;97472.39;;;1.88;64.14
43480;BME280;29067;35.492;-97.520;2024-02-14T12:42:52;97471.69;;;1.90;64.44
43480;BME280;29067;35.492;-97.520;2024-02-14T12:45:20;97472.04;;;1.84;63.89
43480;BME280;29067;35.492;-97.520;2024-02-14T12:47:48;97466.60;;;2.17;64.60
43480;BME280;29067;35.492;-97.520;2024-02-14T12:50:16;97463.63;;;2.06;63.61
43480;BME280;29067;35.492;-97.520;2024-02-14T12:52:44;97465.58;;;2.04;65.37
43480;BME280;29067;35.492;-97.520;2024-02-14T12:55:12;97469.60;;;2.43;62.73
43480;BME280;29067;35.492;-97.520;2024-02-14T12:57:40;97479.86;;;1.32;66.29